Aérodrome :







RETROUVEZ-NOUS SUR...

 
LOGIN :

S'inscrire | Disclaimer

   EN    FR    IT 

 









Légende :    VFR   VFR Marginal   IFR   IFR Intensif   IFR Très Intensif
Visi : 
Plafond : 
>= 8 km
>= 3000ft
5 à 8 km
1000 à 3000 ft
1500m à 5 km
500 à 1000 ft
800 à 1500m
200 à 500 ft
< 800m
< 200 ft
Symboles :   Orages  Brouillard  Fortes neiges  Fortes précipitations  Vent > 20 kt






- Altitude de l'aérodrome : 534 ft
- Code IATA : PQI


KPQI - Northern Maine Regional Arpt At Presque Isle

DERNIER METAR :
  • 150456Z AUTO 19004KT 3/4SM BR OVC003 04/03 A2902 RMK AO2 RAE21UPB21E39 SLP855 P0000 T00390033 400440000 RVRNO

METARs EXPIRÉS :
  • 150436Z AUTO 00000KT 1SM UP BR OVC003 03/02 A2904 RMK AO2 RAE21UPB21 P0000 RVRNO
  • 150356Z AUTO 05003KT 1 1/4SM -RA BR OVC003 02/02 A2909 RMK AO2 UPB19E44RAB44 PRESFR SLP880 P0002 T00170017
  • 150340Z AUTO 01004KT 2 1/2SM UP BR OVC003 02/02 A2911 RMK AO2 UPB19 P0000
  • 150325Z AUTO 36003KT 1 1/2SM UP BR OVC003 02/02 A2913 RMK AO2 UPB19 P0000
  • 150316Z AUTO 01003KT 1SM BR OVC003 02/02 A2914 RMK AO2 RVRNO
  • 150256Z AUTO 06004KT 1/2SM FG OVC003 02/01 A2915 RMK AO2 UPE42RAB42E43 SLP901 P0000 60000 T00170011 58038 RVRNO
  • 150234Z AUTO 00000KT 3/4SM UP BR OVC003 02/02 A2919 RMK AO2 P0000 RVRNO
  • 150222Z AUTO 03003KT 1 3/4SM BR OVC003 02/02 A2920 RMK AO2 UPE17 P0000

TAF KPQI
Valide du 15 à 04h jusqu'au 16 à 00h UTC


150340Z 1504/1524 09003KT 1SM -RA BR OVC003 WS020/17040KT
FM151000 20011KT 5SM -RA BR SCT005 OVC010 WS020/20045KT
FM151200 22012G23KT P6SM VCSH OVC020
FM151900 25022G38KT P6SM OVC030
FM152200 27022G38KT P6SM BKN050



MET'MAP, la Météo Aéronautique d'un coup d'oeil ! - Copyright ORBIFLY Décembre 2007 - Disclaimer

ORBIFLY MET'MAP TEAM :

Programmation & Développement : Alexandra Zaïnal
Sur une idée originale de : Baudouin d'Aumeries
Assistance à la programmation : Marc-Olivier Méhu
Soutien technique & logistique : Manuel Goepfert

Contact : metmap@orbifly.com




SOURCES & CREDITS :

   NOAA